Time;durP1;ratioP1;P1;durP2;ratioP2;P2;SDS_P1;SDS_P2;PMS_P1;PMS_P2;Temp;Humidity;BMP_temperature;BMP_pressure;BME280_temperature;BME280_humidity;BME280_pressure;Samples;Min_cycle;Max_cycle;Signal;HPM_P1;HPM_P2
2024/04/11 00:02:24;;;;;;;1.50;1.50;;;9.20;99.90;;;;;;5391728;26;20253;-73
2024/04/11 00:04:53;;;;;;;1.77;1.65;;;9.20;99.90;;;;;;5413822;26;20293;-73
2024/04/11 00:07:19;;;;;;;1.60;1.50;;;9.20;99.90;;;;;;5399754;26;20252;-73
2024/04/11 00:09:47;;;;;;;1.30;1.30;;;9.20;99.90;;;;;;5400763;26;20302;-73
2024/04/11 00:12:13;;;;;;;1.30;1.30;;;9.20;99.90;;;;;;5429906;26;20751;-73
2024/04/11 00:14:45;;;;;;;1.73;1.63;;;9.20;99.90;;;;;;5423322;26;20251;-72
2024/04/11 00:17:11;;;;;;;1.65;1.65;;;9.20;99.90;;;;;;5424850;26;20251;-72
2024/04/11 00:19:40;;;;;;;1.60;1.50;;;9.10;99.90;;;;;;5432497;25;20745;-72
2024/04/11 00:22:08;;;;;;;1.67;1.58;;;9.00;99.90;;;;;;5427727;26;20255;-72
2024/04/11 00:24:37;;;;;;;1.73;1.63;;;9.00;99.90;;;;;;5434322;25;20252;-72
2024/04/11 00:27:04;;;;;;;1.65;1.60;;;8.90;99.90;;;;;;5424458;26;20250;-72
2024/04/11 00:29:32;;;;;;;1.42;1.42;;;8.90;99.90;;;;;;5429379;26;20734;-72
2024/04/11 00:32:02;;;;;;;1.80;1.70;;;8.90;99.90;;;;;;5428453;26;20775;-73
2024/04/11 00:34:32;;;;;;;1.88;1.77;;;8.90;99.90;;;;;;5429989;26;20830;-72
2024/04/11 00:36:59;;;;;;;1.58;1.58;;;8.90;99.90;;;;;;5426931;26;20357;-72
2024/04/11 00:39:28;;;;;;;1.95;1.73;;;8.80;99.90;;;;;;5432003;26;20247;-72
2024/04/11 00:41:54;;;;;;;1.80;1.70;;;8.80;99.90;;;;;;5420555;26;20347;-73
2024/04/11 00:44:23;;;;;;;1.50;1.50;;;8.80;99.90;;;;;;5436439;26;20295;-72
2024/04/11 00:46:51;;;;;;;1.75;1.65;;;8.80;99.90;;;;;;5428454;26;21618;-72
2024/04/11 00:49:23;;;;;;;1.83;1.73;;;8.70;99.90;;;;;;5431532;26;20921;-73
2024/04/11 00:51:50;;;;;;;1.55;1.55;;;8.70;99.90;;;;;;5425931;26;20250;-73
2024/04/11 00:54:20;;;;;;;1.70;1.60;;;8.70;99.90;;;;;;5433258;26;20280;-72
2024/04/11 00:56:46;;;;;;;1.75;1.65;;;8.70;99.90;;;;;;5423435;26;20255;-73
2024/04/11 00:59:18;;;;;;;2.40;1.70;;;8.70;99.90;;;;;;5434919;26;20310;-73
2024/04/11 01:01:44;;;;;;;1.60;1.55;;;8.70;99.90;;;;;;5416393;26;20333;-73
2024/04/11 01:04:13;;;;;;;1.58;1.58;;;8.70;99.90;;;;;;5426919;26;20757;-73
2024/04/11 01:09:30;;;;;;;1.92;1.83;;;8.70;99.90;;;;;;5431052;26;20293;-73
2024/04/11 01:11:56;;;;;;;1.40;1.40;;;8.70;99.90;;;;;;5423087;26;20791;-73
2024/04/11 01:14:26;;;;;;;1.35;1.35;;;8.60;99.90;;;;;;5435654;26;20381;-73
2024/04/11 01:16:52;;;;;;;1.60;1.60;;;8.60;99.90;;;;;;5423023;26;20252;-73
2024/04/11 01:19:22;;;;;;;1.60;1.60;;;8.60;99.90;;;;;;5434816;26;20297;-73
2024/04/11 01:21:51;;;;;;;1.17;1.17;;;8.60;99.90;;;;;;5435067;26;20259;-73
2024/04/11 01:24:22;;;;;;;1.77;1.67;;;8.60;99.90;;;;;;5428341;26;20263;-73
2024/04/11 01:26:48;;;;;;;1.65;1.58;;;8.60;99.90;;;;;;5432667;26;20318;-74
2024/04/11 01:29:17;;;;;;;2.50;1.88;;;8.60;99.90;;;;;;5429937;26;20736;-73
2024/04/11 01:31:44;;;;;;;1.80;1.70;;;8.60;99.90;;;;;;5431767;26;20247;-73
2024/04/11 01:34:12;;;;;;;2.15;1.80;;;8.50;99.90;;;;;;5431582;26;20871;-73
2024/04/11 01:36:38;;;;;;;1.70;1.60;;;8.50;99.90;;;;;;5425074;26;20558;-72
2024/04/11 01:39:09;;;;;;;1.92;1.85;;;8.50;99.90;;;;;;5432638;26;20278;-73
2024/04/11 01:41:38;;;;;;;1.70;1.70;;;8.50;99.90;;;;;;5425665;26;20359;-73
2024/04/11 01:44:07;;;;;;;1.60;1.60;;;8.40;99.90;;;;;;5426098;26;20297;-73
2024/04/11 01:46:33;;;;;;;2.08;1.98;;;8.50;99.90;;;;;;5424308;26;20303;-73
2024/04/11 01:49:02;;;;;;;1.60;1.50;;;8.40;99.90;;;;;;5428682;26;20788;-73
2024/04/11 01:51:28;;;;;;;1.80;1.73;;;8.50;99.90;;;;;;5425269;26;20729;-72
2024/04/11 01:53:57;;;;;;;1.92;1.70;;;8.50;99.90;;;;;;5435192;25;20835;-73
2024/04/11 01:56:25;;;;;;;1.58;1.58;;;8.40;99.90;;;;;;5429028;26;20247;-73
2024/04/11 01:58:56;;;;;;;1.90;1.80;;;8.40;99.90;;;;;;5424152;26;20303;-73
2024/04/11 02:01:22;;;;;;;1.67;1.60;;;8.30;99.90;;;;;;5420310;26;20660;-73
2024/04/11 02:03:53;;;;;;;1.60;1.60;;;8.30;99.90;;;;;;5433978;26;20706;-73
2024/04/11 02:06:19;;;;;;;1.75;1.75;;;8.40;99.90;;;;;;5425210;26;20233;-73
2024/04/11 02:08:49;;;;;;;1.50;1.50;;;8.40;99.90;;;;;;5427673;26;20688;-73
2024/04/11 02:11:16;;;;;;;1.70;1.70;;;8.40;99.90;;;;;;5427445;26;20736;-73
2024/04/11 02:13:44;;;;;;;1.83;1.75;;;8.30;99.90;;;;;;5427747;26;20250;-73
2024/04/11 02:16:16;;;;;;;1.60;1.60;;;8.30;99.90;;;;;;5430412;26;20259;-73
2024/04/11 02:18:45;;;;;;;2.00;1.90;;;8.30;99.90;;;;;;5436123;26;20265;-73
2024/04/11 02:21:14;;;;;;;1.60;1.60;;;8.30;99.90;;;;;;5439506;26;20722;-73
2024/04/11 02:23:40;;;;;;;1.40;1.40;;;8.30;99.90;;;;;;5439178;26;20307;-73
2024/04/11 02:26:08;;;;;;;1.58;1.58;;;8.20;99.90;;;;;;5427138;26;20767;-73
2024/04/11 02:28:34;;;;;;;1.60;1.60;;;8.20;99.90;;;;;;5431176;26;20772;-73
2024/04/11 02:31:03;;;;;;;1.83;1.73;;;8.30;99.90;;;;;;5425514;26;20303;-73
2024/04/11 02:33:35;;;;;;;1.60;1.60;;;8.20;99.90;;;;;;5423454;26;20617;-73
2024/04/11 02:36:06;;;;;;;1.55;1.50;;;8.20;99.90;;;;;;5418469;26;20481;-73
2024/04/11 02:38:32;;;;;;;2.05;1.85;;;8.20;99.90;;;;;;5437559;26;20364;-73
2024/04/11 02:41:00;;;;;;;1.50;1.50;;;8.20;99.90;;;;;;5434254;26;20315;-73
2024/04/11 02:43:27;;;;;;;1.60;1.60;;;8.20;99.90;;;;;;5432243;26;20247;-73
2024/04/11 02:45:57;;;;;;;1.63;1.63;;;8.20;99.90;;;;;;5422376;26;20294;-73
2024/04/11 02:48:26;;;;;;;1.70;1.70;;;8.10;99.90;;;;;;5433776;26;20252;-73
2024/04/11 02:50:57;;;;;;;2.00;1.90;;;8.10;99.90;;;;;;5429737;26;20259;-73
2024/04/11 02:53:23;;;;;;;1.90;1.80;;;8.00;99.90;;;;;;5430104;26;20330;-73
2024/04/11 02:55:54;;;;;;;1.85;1.75;;;8.00;99.90;;;;;;5427089;26;20263;-73
2024/04/11 02:58:20;;;;;;;1.70;1.60;;;8.00;99.90;;;;;;5422117;26;20394;-73
2024/04/11 03:00:52;;;;;;;1.90;1.80;;;8.00;99.90;;;;;;5432737;26;20251;-73
2024/04/11 03:03:18;;;;;;;1.90;1.80;;;8.00;99.90;;;;;;5429651;26;20252;-73
2024/04/11 03:05:46;;;;;;;1.77;1.75;;;8.00;99.90;;;;;;5423184;26;20744;-73
2024/04/11 03:08:15;;;;;;;1.83;1.73;;;8.10;99.90;;;;;;5432359;26;20652;-73
2024/04/11 03:10:45;;;;;;;1.60;1.60;;;8.10;99.90;;;;;;5431887;26;20263;-73
2024/04/11 03:13:11;;;;;;;1.60;1.60;;;8.00;99.90;;;;;;5425841;26;20781;-73
2024/04/11 03:15:40;;;;;;;1.80;1.70;;;8.00;99.90;;;;;;5430057;26;20259;-73
2024/04/11 03:18:06;;;;;;;1.50;1.50;;;8.00;99.90;;;;;;5425429;26;20879;-73
2024/04/11 03:20:35;;;;;;;1.70;1.60;;;8.00;99.90;;;;;;5427091;26;20302;-73
2024/04/11 03:23:01;;;;;;;1.98;1.90;;;8.00;99.90;;;;;;5431883;26;20305;-72
2024/04/11 03:25:33;;;;;;;1.60;1.58;;;7.90;99.90;;;;;;5420521;26;20259;-72
2024/04/11 03:28:01;;;;;;;2.00;1.90;;;7.90;99.90;;;;;;5426633;25;20357;-73
2024/04/11 03:30:30;;;;;;;1.95;1.85;;;7.90;99.90;;;;;;5424513;26;20303;-72
2024/04/11 03:32:56;;;;;;;1.95;1.85;;;7.90;99.90;;;;;;5424155;26;20335;-73
2024/04/11 03:35:25;;;;;;;1.70;1.70;;;7.90;99.90;;;;;;5427625;26;20653;-73
2024/04/11 03:37:51;;;;;;;1.58;1.50;;;7.90;99.90;;;;;;5405254;26;20251;-73
2024/04/11 03:40:20;;;;;;;1.92;1.83;;;7.90;99.90;;;;;;5426885;26;20591;-72
2024/04/11 03:42:51;;;;;;;1.70;1.70;;;7.90;99.90;;;;;;5423860;26;20724;-72
2024/04/11 03:45:26;;;;;;;1.50;1.50;;;7.90;99.90;;;;;;5430832;26;20255;-73
2024/04/11 03:47:55;;;;;;;1.83;1.70;;;7.90;99.90;;;;;;5430587;26;20254;-73
2024/04/11 03:50:24;;;;;;;1.90;1.80;;;7.90;99.90;;;;;;5428626;26;20334;-73
2024/04/11 03:52:51;;;;;;;1.42;1.40;;;8.00;99.90;;;;;;5428080;26;20435;-73
2024/04/11 03:55:20;;;;;;;1.95;1.85;;;7.90;99.90;;;;;;5427617;26;20292;-73
2024/04/11 03:57:49;;;;;;;1.50;1.40;;;7.90;99.90;;;;;;5425145;26;20252;-73
2024/04/11 04:00:19;;;;;;;2.25;1.88;;;7.80;99.90;;;;;;5420423;26;20258;-73
2024/04/11 04:02:45;;;;;;;1.95;1.85;;;7.80;99.90;;;;;;5425089;26;20263;-72
2024/04/11 04:05:15;;;;;;;2.30;2.17;;;7.80;99.90;;;;;;5430036;26;20283;-73
2024/04/11 04:07:42;;;;;;;2.00;1.90;;;7.70;99.90;;;;;;5428971;25;20259;-73
2024/04/11 04:10:12;;;;;;;2.10;2.00;;;7.70;99.90;;;;;;5422084;26;20360;-72
2024/04/11 04:12:38;;;;;;;1.77;1.70;;;7.70;99.90;;;;;;5431883;26;20850;-72
2024/04/11 04:15:10;;;;;;;1.90;1.90;;;7.60;99.90;;;;;;5426094;26;20259;-73
2024/04/11 04:17:36;;;;;;;2.00;1.90;;;7.60;99.90;;;;;;5431316;26;20256;-72
2024/04/11 04:20:09;;;;;;;1.60;1.60;;;7.60;99.90;;;;;;5423597;26;20283;-72
2024/04/11 04:22:35;;;;;;;1.52;1.52;;;7.70;99.90;;;;;;5430379;26;20973;-72
2024/04/11 04:25:05;;;;;;;2.65;1.75;;;7.70;99.90;;;;;;5407662;26;20650;-73
2024/04/11 04:27:31;;;;;;;2.38;2.28;;;7.70;99.90;;;;;;5424998;26;20259;-73
2024/04/11 04:30:00;;;;;;;1.80;1.70;;;7.70;99.90;;;;;;5422241;26;20646;-73
2024/04/11 04:32:29;;;;;;;1.90;1.80;;;7.70;99.90;;;;;;5433063;26;20286;-73
2024/04/11 04:34:57;;;;;;;1.95;1.85;;;7.70;99.90;;;;;;5419537;26;20819;-72
2024/04/11 04:37:24;;;;;;;2.13;2.03;;;7.70;99.90;;;;;;5426307;26;20255;-73
2024/04/11 04:39:53;;;;;;;2.00;1.90;;;7.70;99.90;;;;;;5428704;25;20255;-72
2024/04/11 04:42:19;;;;;;;1.73;1.63;;;7.70;99.90;;;;;;5430464;25;20289;-72
2024/04/11 04:44:50;;;;;;;2.30;2.20;;;7.70;99.90;;;;;;5425462;26;20293;-72
2024/04/11 04:47:16;;;;;;;2.08;1.98;;;7.70;99.90;;;;;;5425426;26;20301;-73
2024/04/11 04:49:53;;;;;;;2.13;2.03;;;7.60;99.90;;;;;;5427215;26;20254;-73
2024/04/11 04:52:21;;;;;;;2.00;1.90;;;7.70;99.90;;;;;;5420004;26;20256;-73
2024/04/11 04:54:51;;;;;;;1.95;1.88;;;7.70;99.90;;;;;;5423831;26;20251;-73
2024/04/11 04:57:17;;;;;;;2.00;1.90;;;7.80;99.90;;;;;;5432207;25;20266;-73
2024/04/11 04:59:46;;;;;;;2.55;1.80;;;7.90;99.90;;;;;;5420347;26;20276;-73
2024/04/11 05:02:13;;;;;;;1.95;1.85;;;7.90;99.90;;;;;;5427186;26;20244;-73
2024/04/11 05:04:42;;;;;;;2.58;1.90;;;8.00;99.90;;;;;;5429373;26;20404;-73
2024/04/11 05:07:12;;;;;;;1.90;1.80;;;8.00;99.90;;;;;;5430150;26;20298;-73
2024/04/11 05:09:45;;;;;;;1.70;1.60;;;8.10;99.90;;;;;;5406043;26;20329;-73
2024/04/11 05:12:11;;;;;;;2.22;2.13;;;8.10;99.90;;;;;;5393173;26;21009;-73
2024/04/11 05:14:45;;;;;;;2.00;1.90;;;8.10;99.90;;;;;;5420068;26;20318;-73
2024/04/11 05:17:11;;;;;;;1.90;1.80;;;8.20;99.90;;;;;;5419551;26;20262;-73
2024/04/11 05:19:41;;;;;;;2.08;1.98;;;8.30;99.90;;;;;;5420060;26;20247;-73
2024/04/11 05:22:08;;;;;;;2.63;2.53;;;8.30;99.90;;;;;;5425309;26;20318;-73
2024/04/11 05:24:40;;;;;;;2.00;1.90;;;8.40;99.90;;;;;;5374199;26;20405;-71
2024/04/11 05:27:08;;;;;;;2.15;2.05;;;8.50;99.90;;;;;;5385444;26;20256;-73
2024/04/11 05:29:37;;;;;;;2.00;1.90;;;8.50;99.90;;;;;;5383739;26;20621;-73
2024/04/11 05:32:04;;;;;;;1.90;1.80;;;8.70;99.90;;;;;;5387147;26;20253;-73
2024/04/11 05:34:32;;;;;;;2.00;1.90;;;8.80;99.90;;;;;;5383180;26;20282;-73
2024/04/11 05:36:58;;;;;;;2.05;1.95;;;9.00;99.90;;;;;;5381790;26;20650;-73
2024/04/11 05:39:27;;;;;;;2.10;2.00;;;9.20;99.90;;;;;;5391806;26;20252;-73
2024/04/11 05:41:56;;;;;;;2.60;2.40;;;9.40;99.90;;;;;;5414678;26;20605;-74
2024/04/11 05:44:25;;;;;;;2.10;2.00;;;9.60;99.90;;;;;;5405090;26;20255;-71
2024/04/11 05:46:51;;;;;;;1.90;1.80;;;9.70;99.90;;;;;;5428039;26;20278;-71
2024/04/11 05:49:20;;;;;;;2.17;2.00;;;9.90;99.90;;;;;;5432094;26;20247;-74
2024/04/11 05:51:46;;;;;;;2.22;2.13;;;10.10;99.90;;;;;;5396634;26;20392;-72
2024/04/11 05:54:16;;;;;;;1.90;1.80;;;10.30;99.90;;;;;;5423240;26;20747;-71
2024/04/11 05:56:42;;;;;;;1.92;1.83;;;10.40;99.90;;;;;;5434246;26;20836;-71
2024/04/11 05:59:14;;;;;;;1.67;1.58;;;10.50;99.90;;;;;;5424713;26;20795;-71
2024/04/11 06:01:40;;;;;;;2.00;1.90;;;10.50;99.90;;;;;;5435479;26;20258;-71
2024/04/11 06:04:09;;;;;;;1.73;1.63;;;10.70;99.90;;;;;;5427087;26;20252;-71
2024/04/11 06:06:35;;;;;;;2.30;2.10;;;10.90;99.90;;;;;;5423608;26;20256;-71
2024/04/11 06:09:03;;;;;;;2.08;1.98;;;10.90;99.90;;;;;;5421975;26;20596;-71
2024/04/11 06:11:29;;;;;;;1.80;1.70;;;10.90;99.90;;;;;;5430243;26;20277;-72
2024/04/11 06:13:58;;;;;;;2.20;2.00;;;11.00;99.90;;;;;;5434490;26;20264;-71
2024/04/11 06:16:27;;;;;;;2.35;1.88;;;11.10;99.90;;;;;;5427194;26;20294;-71
2024/04/11 06:18:57;;;;;;;1.85;1.70;;;11.00;99.90;;;;;;5421420;26;20286;-72
2024/04/11 06:21:32;;;;;;;2.95;2.20;;;11.20;99.90;;;;;;5423810;26;20562;-73
2024/04/11 06:24:01;;;;;;;1.98;1.88;;;11.50;99.90;;;;;;5433788;26;20259;-72
2024/04/11 06:26:28;;;;;;;2.85;1.90;;;11.60;99.90;;;;;;5437658;26;20294;-72
2024/04/11 06:28:56;;;;;;;1.73;1.63;;;11.70;99.90;;;;;;5434681;26;20370;-72
2024/04/11 06:31:24;;;;;;;1.83;1.73;;;12.00;99.90;;;;;;5428217;26;20254;-72
2024/04/11 06:33:56;;;;;;;1.85;1.75;;;12.10;99.90;;;;;;5429362;26;20306;-72
2024/04/11 06:36:21;;;;;;;1.90;1.70;;;12.30;99.90;;;;;;5435539;26;20306;-72
2024/04/11 06:38:51;;;;;;;1.92;1.83;;;12.60;99.90;;;;;;5433906;26;20247;-71
2024/04/11 06:41:22;;;;;;;2.03;1.63;;;13.00;99.90;;;;;;5436437;26;20309;-72
2024/04/11 06:43:51;;;;;;;1.40;1.30;;;13.20;99.90;;;;;;5431136;26;20337;-72
2024/04/11 06:46:18;;;;;;;1.70;1.60;;;13.40;99.90;;;;;;5427599;26;20256;-72
2024/04/11 06:48:47;;;;;;;2.80;1.80;;;13.60;99.90;;;;;;5431704;26;20263;-72
2024/04/11 06:51:19;;;;;;;1.70;1.50;;;13.90;99.90;;;;;;5422821;26;20642;-72
2024/04/11 06:53:48;;;;;;;2.25;1.88;;;14.00;99.90;;;;;;5427370;26;20239;-72
2024/04/11 06:56:17;;;;;;;2.10;2.00;;;14.10;99.90;;;;;;5432754;26;20297;-72
2024/04/11 06:58:47;;;;;;;1.83;1.73;;;13.90;99.90;;;;;;5433593;26;20794;-72
2024/04/11 07:01:15;;;;;;;1.70;1.60;;;13.70;99.90;;;;;;5430530;26;20293;-73
2024/04/11 07:03:46;;;;;;;1.80;1.70;;;13.70;99.90;;;;;;5428059;26;20253;-72
2024/04/11 07:06:21;;;;;;;1.75;1.65;;;13.90;99.90;;;;;;5433155;26;20328;-73
2024/04/11 07:08:54;;;;;;;1.70;1.60;;;13.80;99.90;;;;;;5435071;26;20313;-72
2024/04/11 07:11:27;;;;;;;1.90;1.70;;;13.80;99.90;;;;;;5443839;25;20365;-73
2024/04/11 07:13:57;;;;;;;2.50;1.80;;;13.80;99.90;;;;;;5431045;26;20299;-73
2024/04/11 07:16:26;;;;;;;1.92;1.80;;;13.80;99.90;;;;;;5431810;25;20255;-72
2024/04/11 07:18:57;;;;;;;1.80;1.55;;;13.80;99.90;;;;;;5439213;26;20620;-72
2024/04/11 07:21:25;;;;;;;1.70;1.60;;;13.70;99.90;;;;;;5434647;26;20607;-73
2024/04/11 07:23:58;;;;;;;2.67;1.90;;;13.70;99.90;;;;;;5433172;26;20812;-72
2024/04/11 07:26:29;;;;;;;2.03;1.83;;;13.60;99.90;;;;;;5421250;26;20633;-73
2024/04/11 07:28:59;;;;;;;2.38;1.80;;;13.60;99.90;;;;;;5425103;26;20342;-72
2024/04/11 07:31:26;;;;;;;1.70;1.60;;;13.70;99.90;;;;;;5430573;26;21174;-72
2024/04/11 07:33:55;;;;;;;1.85;1.70;;;14.00;99.90;;;;;;5425254;26;21754;-72
2024/04/11 07:36:22;;;;;;;1.60;1.50;;;14.20;99.90;;;;;;5433146;26;21019;-71
2024/04/11 07:38:52;;;;;;;2.10;1.90;;;14.50;99.90;;;;;;5430609;26;20243;-72
2024/04/11 07:41:23;;;;;;;1.65;1.55;;;14.70;99.90;;;;;;5438259;26;20361;-72
2024/04/11 07:43:55;;;;;;;2.78;1.70;;;14.90;99.90;;;;;;5431142;26;20256;-72
2024/04/11 07:46:28;;;;;;;2.13;1.85;;;14.90;99.90;;;;;;5428718;26;20285;-72
2024/04/11 07:48:58;;;;;;;1.98;1.88;;;14.80;99.90;;;;;;5426633;26;20756;-72
2024/04/11 07:51:26;;;;;;;2.70;1.77;;;14.70;99.90;;;;;;5437180;26;20277;-72
2024/04/11 07:53:55;;;;;;;1.70;1.60;;;14.70;99.90;;;;;;5435164;26;20243;-72
2024/04/11 07:56:25;;;;;;;5.32;1.80;;;14.70;99.90;;;;;;5425324;26;20255;-72
2024/04/11 07:58:55;;;;;;;2.50;1.98;;;14.90;99.90;;;;;;5424374;26;20286;-72
2024/04/11 08:01:30;;;;;;;2.05;1.80;;;15.00;99.90;;;;;;5427498;26;20259;-72
2024/04/11 08:04:00;;;;;;;1.88;1.67;;;14.90;99.90;;;;;;5417886;26;21409;-72
2024/04/11 08:06:26;;;;;;;2.42;1.90;;;15.00;99.90;;;;;;5428619;25;20262;-73
2024/04/11 08:08:56;;;;;;;1.90;1.80;;;15.20;99.90;;;;;;5432084;26;20357;-72
2024/04/11 08:11:29;;;;;;;2.55;1.70;;;15.30;99.90;;;;;;5420991;26;20342;-72
2024/04/11 08:13:57;;;;;;;1.70;1.58;;;15.40;99.90;;;;;;5424210;26;20291;-72
2024/04/11 08:16:24;;;;;;;1.58;1.38;;;15.50;99.90;;;;;;5432977;26;20305;-72
2024/04/11 08:18:52;;;;;;;1.65;1.55;;;15.40;99.90;;;;;;5423139;26;20264;-72
2024/04/11 08:21:20;;;;;;;2.20;1.92;;;15.40;99.90;;;;;;5429503;26;20969;-72
2024/04/11 08:23:49;;;;;;;1.85;1.65;;;15.40;99.90;;;;;;5426595;26;20282;-73
2024/04/11 08:26:15;;;;;;;3.95;2.00;;;15.40;99.90;;;;;;5426076;26;20260;-73
2024/04/11 08:28:47;;;;;;;2.63;1.40;;;15.60;99.90;;;;;;5426225;26;20338;-74
2024/04/11 08:31:13;;;;;;;2.17;1.80;;;15.60;99.90;;;;;;5426408;26;20254;-73
2024/04/11 08:33:42;;;;;;;1.92;1.60;;;15.80;99.90;;;;;;5427804;26;20937;-74
2024/04/11 08:36:08;;;;;;;2.55;1.70;;;15.80;99.90;;;;;;5414732;26;20403;-73
2024/04/11 08:38:40;;;;;;;3.30;1.98;;;15.90;99.90;;;;;;5422900;26;20282;-72
2024/04/11 08:41:08;;;;;;;3.15;1.67;;;16.00;99.90;;;;;;5425915;26;20255;-73
2024/04/11 08:43:38;;;;;;;1.80;1.63;;;16.00;99.90;;;;;;5423369;26;20257;-73
2024/04/11 08:46:09;;;;;;;1.75;1.65;;;16.20;99.90;;;;;;5424080;26;20301;-74
2024/04/11 08:48:39;;;;;;;2.10;1.85;;;16.50;99.90;;;;;;5417988;26;20297;-73
2024/04/11 08:51:14;;;;;;;1.63;1.50;;;16.60;99.90;;;;;;5419679;26;20350;-72
2024/04/11 08:53:45;;;;;;;1.77;1.67;;;16.70;99.90;;;;;;5427392;26;20246;-73
2024/04/11 08:56:14;;;;;;;1.70;1.55;;;16.90;99.90;;;;;;5416150;26;20252;-73
2024/04/11 08:58:45;;;;;;;2.20;1.63;;;16.80;99.90;;;;;;5391777;26;20349;-73
2024/04/11 09:01:16;;;;;;;2.17;1.90;;;16.60;99.90;;;;;;5409400;26;20302;-74
2024/04/11 09:03:47;;;;;;;3.03;2.08;;;16.50;99.90;;;;;;5391248;26;20256;-73
2024/04/11 09:06:14;;;;;;;2.05;1.60;;;16.90;99.90;;;;;;5388782;26;20253;-73
2024/04/11 09:08:43;;;;;;;1.83;1.42;;;17.30;99.90;;;;;;5350070;26;20923;-74
2024/04/11 09:11:10;;;;;;;2.13;1.30;;;17.50;99.90;;;;;;5430198;26;20958;-74
2024/04/11 09:13:39;;;;;;;1.83;1.73;;;17.40;99.90;;;;;;5429722;26;20293;-73
2024/04/11 09:16:06;;;;;;;1.70;1.52;;;17.40;99.90;;;;;;5429947;25;20268;-75
2024/04/11 09:18:37;;;;;;;2.40;1.50;;;17.10;99.90;;;;;;5429799;26;20315;-73
2024/04/11 09:21:04;;;;;;;1.83;1.60;;;17.30;99.90;;;;;;5430432;25;20795;-74
2024/04/11 09:23:38;;;;;;;2.15;1.80;;;17.40;99.90;;;;;;5404462;26;20248;-73
2024/04/11 09:26:05;;;;;;;1.45;1.33;;;17.70;99.90;;;;;;5437010;26;21143;-74
2024/04/11 09:28:33;;;;;;;2.15;1.70;;;17.50;99.90;;;;;;5426703;26;20252;-73
2024/04/11 09:31:00;;;;;;;2.67;1.20;;;17.40;99.90;;;;;;5434630;26;20260;-75
2024/04/11 09:33:34;;;;;;;1.25;1.23;;;17.30;99.90;;;;;;5432286;26;20339;-75
2024/04/11 09:36:04;;;;;;;2.17;1.58;;;17.30;99.90;;;;;;5396037;26;20298;-74
2024/04/11 09:38:36;;;;;;;2.03;1.80;;;17.70;99.90;;;;;;5388668;26;20264;-73
2024/04/11 09:41:04;;;;;;;2.65;1.67;;;17.90;99.90;;;;;;5391287;26;20296;-74
2024/04/11 09:43:40;;;;;;;2.72;1.50;;;18.10;99.90;;;;;;5385037;26;20995;-73
2024/04/11 09:46:07;;;;;;;1.70;1.40;;;18.10;99.90;;;;;;5435017;25;20267;-74
2024/04/11 09:48:38;;;;;;;1.50;1.40;;;17.90;99.90;;;;;;5444932;25;20763;-74
2024/04/11 09:51:10;;;;;;;1.60;1.50;;;18.00;99.90;;;;;;5403474;26;20341;-76
2024/04/11 09:53:39;;;;;;;2.92;1.60;;;18.10;99.90;;;;;;5428536;26;20258;-75
2024/04/11 09:56:08;;;;;;;1.98;1.55;;;18.30;99.90;;;;;;5431500;26;21826;-75
2024/04/11 09:58:42;;;;;;;2.35;1.63;;;18.10;99.90;;;;;;5433630;26;20399;-73
2024/04/11 10:01:29;;;;;;;1.50;1.33;;;18.30;99.90;;;;;;5432432;26;20246;-74
2024/04/11 10:04:03;;;;;;;1.70;1.52;;;18.20;99.90;;;;;;5426671;26;20313;-74
2024/04/11 10:06:35;;;;;;;1.60;1.50;;;18.40;99.90;;;;;;5398272;26;20299;-74
2024/04/11 10:09:17;;;;;;;2.80;1.33;;;18.60;99.90;;;;;;5431076;26;20287;-75
2024/04/11 10:11:45;;;;;;;1.52;1.42;;;18.90;99.90;;;;;;5408175;26;20247;-75
2024/04/11 10:14:20;;;;;;;1.58;1.48;;;19.10;99.90;;;;;;5429612;25;22133;-74
2024/04/11 10:16:48;;;;;;;1.77;1.60;;;19.20;99.90;;;;;;5431582;26;20842;-75
2024/04/11 10:19:26;;;;;;;2.75;1.90;;;19.20;99.90;;;;;;5437098;26;20252;-75
2024/04/11 10:22:01;;;;;;;1.73;1.63;;;19.40;99.90;;;;;;5436050;26;20263;-74
2024/04/11 10:24:32;;;;;;;1.95;1.50;;;19.40;99.90;;;;;;5428739;26;20262;-74
2024/04/11 10:27:11;;;;;;;1.73;1.27;;;19.50;99.90;;;;;;5390142;26;20291;-75
2024/04/11 10:29:43;;;;;;;1.77;1.58;;;19.70;99.90;;;;;;5400418;26;20625;-74
2024/04/11 10:32:22;;;;;;;1.60;1.50;;;19.50;99.90;;;;;;5401130;26;20871;-75
2024/04/11 10:34:56;;;;;;;1.55;1.42;;;19.20;99.90;;;;;;5391901;26;20322;-76
2024/04/11 10:37:25;;;;;;;2.15;1.65;;;19.40;99.90;;;;;;5389649;26;20361;-74
2024/04/11 10:39:57;;;;;;;2.08;1.50;;;19.60;99.90;;;;;;5377893;26;20320;-75
2024/04/11 10:42:29;;;;;;;1.83;1.40;;;19.80;99.90;;;;;;5391435;26;20256;-74
2024/04/11 10:45:02;;;;;;;3.50;1.48;;;20.00;99.90;;;;;;5395273;26;20311;-73
2024/04/11 10:47:29;;;;;;;1.50;1.40;;;19.90;99.90;;;;;;5391926;26;20363;-73
2024/04/11 10:49:59;;;;;;;1.65;1.55;;;19.90;99.90;;;;;;5383647;26;20355;-74
2024/04/11 10:52:29;;;;;;;1.52;1.42;;;20.20;99.90;;;;;;5394827;26;20256;-76
2024/04/11 10:55:12;;;;;;;1.85;1.52;;;20.40;99.90;;;;;;5381197;26;20256;-73
2024/04/11 10:57:41;;;;;;;2.65;1.67;;;20.40;99.90;;;;;;5384092;26;20291;-73
2024/04/11 11:00:22;;;;;;;1.65;1.55;;;20.40;99.90;;;;;;5386536;26;20291;-73
2024/04/11 11:02:48;;;;;;;1.80;1.50;;;20.60;99.90;;;;;;5386526;26;20712;-73
2024/04/11 11:05:18;;;;;;;2.13;1.45;;;20.70;99.90;;;;;;5397020;26;20314;-73
2024/04/11 11:07:48;;;;;;;1.52;1.42;;;20.70;99.90;;;;;;5391665;26;20327;-74
2024/04/11 11:10:18;;;;;;;2.20;1.80;;;20.70;99.90;;;;;;5409135;26;20299;-74
2024/04/11 11:12:44;;;;;;;2.58;1.75;;;20.50;99.90;;;;;;5434776;26;20282;-72
2024/04/11 11:15:14;;;;;;;2.20;1.58;;;20.40;99.90;;;;;;5426784;26;20260;-73
2024/04/11 11:17:40;;;;;;;2.13;1.52;;;20.30;99.90;;;;;;5435269;26;20807;-73
2024/04/11 11:20:13;;;;;;;3.20;1.50;;;20.40;99.90;;;;;;5429959;26;20251;-75
2024/04/11 11:22:40;;;;;;;4.68;1.73;;;20.50;99.90;;;;;;5402275;26;20352;-74
2024/04/11 11:25:12;;;;;;;1.98;1.35;;;20.60;99.90;;;;;;5411373;26;20264;-73
2024/04/11 11:27:38;;;;;;;1.50;1.40;;;20.80;99.90;;;;;;5426564;26;20267;-73
2024/04/11 11:30:15;;;;;;;1.10;1.10;;;20.90;99.90;;;;;;5428517;26;20286;-73
2024/04/11 11:32:43;;;;;;;2.05;1.70;;;21.30;99.90;;;;;;5432720;26;20266;-74
2024/04/11 11:35:12;;;;;;;2.58;1.27;;;21.60;99.90;;;;;;5438156;26;20258;-73
2024/04/11 11:37:38;;;;;;;1.45;1.38;;;21.70;99.90;;;;;;5421121;26;20263;-73
2024/04/11 11:40:38;;;;;;;2.80;1.30;;;21.60;99.90;;;;;;5429822;26;20309;-74
2024/04/11 11:42:57;;;;;;;1.67;1.50;;;21.50;99.90;;;;;;5429293;26;20285;-74
2024/04/11 11:45:44;;;;;;;1.70;1.60;;;21.40;99.90;;;;;;5434968;26;20335;-73
2024/04/11 11:48:12;;;;;;;3.38;1.63;;;21.30;99.90;;;;;;5432374;26;20256;-73
2024/04/11 11:50:43;;;;;;;2.00;1.25;;;21.10;99.90;;;;;;5428170;26;20267;-73
2024/04/11 11:53:24;;;;;;;2.03;1.50;;;21.10;99.90;;;;;;5434877;26;20298;-75
2024/04/11 11:55:58;;;;;;;1.60;1.50;;;21.20;99.90;;;;;;5435111;26;20263;-73
2024/04/11 11:58:30;;;;;;;3.47;1.40;;;21.20;99.90;;;;;;5426731;26;20353;-74
2024/04/11 12:01:01;;;;;;;1.42;0.95;;;21.20;99.90;;;;;;5438653;26;20255;-72
2024/04/11 12:03:31;;;;;;;1.58;1.25;;;21.30;99.90;;;;;;5401223;26;20281;-77
2024/04/11 12:06:04;;;;;;;1.52;1.15;;;21.40;99.90;;;;;;5392994;26;20310;-74
2024/04/11 12:08:37;;;;;;;2.53;1.40;;;21.40;99.90;;;;;;5435862;26;20864;-73
2024/04/11 12:14:02;;;;;;;1.30;1.20;;;21.80;99.90;;;;;;5390345;26;20267;-74
2024/04/11 12:16:38;;;;;;;1.33;1.23;;;22.00;99.90;;;;;;5389068;26;20275;-73
2024/04/11 12:19:08;;;;;;;1.60;1.33;;;22.20;99.90;;;;;;5411559;26;20291;-74
2024/04/11 12:21:44;;;;;;;1.20;1.10;;;22.00;99.90;;;;;;5405529;26;20249;-73
2024/04/11 12:24:13;;;;;;;1.70;1.40;;;22.10;99.90;;;;;;5408664;26;20281;-73
2024/04/11 12:26:39;;;;;;;1.10;1.00;;;22.20;99.90;;;;;;5408631;26;20267;-74
2024/04/11 12:29:11;;;;;;;1.38;1.25;;;22.10;99.90;;;;;;5401930;26;20267;-73
2024/04/11 12:31:37;;;;;;;3.35;1.50;;;22.10;99.90;;;;;;5398387;26;20261;-74
2024/04/11 12:34:09;;;;;;;1.40;1.30;;;22.20;99.90;;;;;;5405634;26;20243;-74
2024/04/11 12:36:46;;;;;;;1.83;1.10;;;22.20;99.90;;;;;;5432412;26;20259;-74
2024/04/11 12:39:21;;;;;;;1.75;1.23;;;22.30;99.90;;;;;;5429695;26;20374;-74
2024/04/11 12:41:50;;;;;;;1.95;1.80;;;22.40;99.90;;;;;;5432757;26;20332;-74
2024/04/11 12:44:26;;;;;;;1.42;1.33;;;22.30;99.90;;;;;;5433060;26;20272;-73
2024/04/11 12:46:52;;;;;;;2.22;1.20;;;22.30;99.90;;;;;;5421709;26;20866;-74
2024/04/11 12:49:25;;;;;;;2.53;1.10;;;22.50;99.90;;;;;;5404060;26;20318;-74
2024/04/11 12:51:52;;;;;;;1.70;1.10;;;22.60;99.90;;;;;;5430997;26;20782;-73
2024/04/11 12:54:26;;;;;;;1.38;1.20;;;22.60;99.90;;;;;;5397144;26;20244;-74
2024/04/11 12:56:53;;;;;;;1.13;1.02;;;22.60;99.90;;;;;;5423195;26;20263;-74
2024/04/11 12:59:30;;;;;;;2.08;1.35;;;22.80;99.90;;;;;;5433005;26;20270;-74
2024/04/11 13:01:56;;;;;;;2.30;1.38;;;22.90;99.90;;;;;;5430462;26;20264;-73
2024/04/11 13:04:26;;;;;;;3.00;1.40;;;22.80;99.90;;;;;;5432688;26;20363;-73
2024/04/11 13:06:58;;;;;;;2.50;1.35;;;22.80;99.90;;;;;;5434412;26;20255;-73
2024/04/11 13:09:34;;;;;;;2.40;1.20;;;22.80;99.90;;;;;;5432920;26;20274;-73